sensor_id;sensor_type;location;lat;lon;timestamp;temperature;humidity
25024;DHT22;13033;50.936;5.334;2022-12-07T00:01:34;5.80;99.90
25024;DHT22;13033;50.936;5.334;2022-12-07T00:04:02;5.90;99.90
25024;DHT22;13033;50.936;5.334;2022-12-07T00:06:39;5.90;99.90
25024;DHT22;13033;50.936;5.334;2022-12-07T00:09:07;5.80;99.90
25024;DHT22;13033;50.936;5.334;2022-12-07T00:11:33;5.80;99.90
25024;DHT22;13033;50.936;5.334;2022-12-07T00:14:00;5.80;99.90
25024;DHT22;13033;50.936;5.334;2022-12-07T00:16:28;6.10;99.90
25024;DHT22;13033;50.936;5.334;2022-12-07T00:18:54;6.30;99.90
25024;DHT22;13033;50.936;5.334;2022-12-07T00:21:23;6.30;99.90
25024;DHT22;13033;50.936;5.334;2022-12-07T00:23:51;6.20;99.90
25024;DHT22;13033;50.936;5.334;2022-12-07T00:26:22;6.00;99.90
25024;DHT22;13033;50.936;5.334;2022-12-07T00:28:50;6.00;99.90
25024;DHT22;13033;50.936;5.334;2022-12-07T00:31:18;6.00;99.90
25024;DHT22;13033;50.936;5.334;2022-12-07T00:33:44;5.90;99.90
25024;DHT22;13033;50.936;5.334;2022-12-07T00:36:12;5.80;99.90
25024;DHT22;13033;50.936;5.334;2022-12-07T00:38:39;5.90;99.90
25024;DHT22;13033;50.936;5.334;2022-12-07T00:41:07;5.80;99.90
25024;DHT22;13033;50.936;5.334;2022-12-07T00:43:34;5.80;99.90
25024;DHT22;13033;50.936;5.334;2022-12-07T00:46:00;5.70;99.90
25024;DHT22;13033;50.936;5.334;2022-12-07T00:48:26;5.80;99.90
25024;DHT22;13033;50.936;5.334;2022-12-07T00:50:51;5.80;99.90
25024;DHT22;13033;50.936;5.334;2022-12-07T00:53:18;5.80;99.90
25024;DHT22;13033;50.936;5.334;2022-12-07T00:55:45;5.80;99.90
25024;DHT22;13033;50.936;5.334;2022-12-07T00:58:11;5.90;99.90
25024;DHT22;13033;50.936;5.334;2022-12-07T01:00:38;5.90;99.90
25024;DHT22;13033;50.936;5.334;2022-12-07T01:03:05;6.00;99.90
25024;DHT22;13033;50.936;5.334;2022-12-07T01:05:31;6.10;99.90
25024;DHT22;13033;50.936;5.334;2022-12-07T01:07:56;6.20;99.90
25024;DHT22;13033;50.936;5.334;2022-12-07T01:10:22;6.20;99.90
25024;DHT22;13033;50.936;5.334;2022-12-07T01:12:48;6.10;99.90
25024;DHT22;13033;50.936;5.334;2022-12-07T01:15:14;6.10;99.90
25024;DHT22;13033;50.936;5.334;2022-12-07T01:17:39;6.20;99.90
25024;DHT22;13033;50.936;5.334;2022-12-07T01:20:06;6.30;99.90
25024;DHT22;13033;50.936;5.334;2022-12-07T01:22:37;6.30;99.90
25024;DHT22;13033;50.936;5.334;2022-12-07T01:25:03;6.20;99.90
25024;DHT22;13033;50.936;5.334;2022-12-07T01:27:29;6.10;99.90
25024;DHT22;13033;50.936;5.334;2022-12-07T01:29:55;6.20;99.90
25024;DHT22;13033;50.936;5.334;2022-12-07T01:32:20;6.40;99.90
25024;DHT22;13033;50.936;5.334;2022-12-07T01:34:48;6.40;99.90
25024;DHT22;13033;50.936;5.334;2022-12-07T01:37:13;6.30;99.90
25024;DHT22;13033;50.936;5.334;2022-12-07T01:39:39;6.30;99.90
25024;DHT22;13033;50.936;5.334;2022-12-07T01:42:05;6.40;99.90
25024;DHT22;13033;50.936;5.334;2022-12-07T01:44:30;6.50;99.90
25024;DHT22;13033;50.936;5.334;2022-12-07T01:47:02;6.50;99.90
25024;DHT22;13033;50.936;5.334;2022-12-07T01:54:47;6.40;99.90
25024;DHT22;13033;50.936;5.334;2022-12-07T01:57:15;6.40;99.90
25024;DHT22;13033;50.936;5.334;2022-12-07T01:59:44;6.30;99.90
25024;DHT22;13033;50.936;5.334;2022-12-07T02:02:18;6.40;99.90
25024;DHT22;13033;50.936;5.334;2022-12-07T02:04:45;6.50;99.90
25024;DHT22;13033;50.936;5.334;2022-12-07T02:07:12;6.30;99.90
25024;DHT22;13033;50.936;5.334;2022-12-07T02:09:38;6.20;99.90
25024;DHT22;13033;50.936;5.334;2022-12-07T02:12:04;6.10;99.90
25024;DHT22;13033;50.936;5.334;2022-12-07T02:14:30;6.10;99.90
25024;DHT22;13033;50.936;5.334;2022-12-07T02:17:11;5.90;99.90
25024;DHT22;13033;50.936;5.334;2022-12-07T02:30:37;6.20;99.90
25024;DHT22;13033;50.936;5.334;2022-12-07T02:41:33;6.20;99.90
25024;DHT22;13033;50.936;5.334;2022-12-07T02:44:16;6.20;99.90
25024;DHT22;13033;50.936;5.334;2022-12-07T02:46:48;6.20;99.90
25024;DHT22;13033;50.936;5.334;2022-12-07T02:49:15;6.20;99.90
25024;DHT22;13033;50.936;5.334;2022-12-07T02:51:45;6.30;99.90
25024;DHT22;13033;50.936;5.334;2022-12-07T02:54:18;6.30;99.90
25024;DHT22;13033;50.936;5.334;2022-12-07T02:59:33;6.10;99.90
25024;DHT22;13033;50.936;5.334;2022-12-07T03:02:09;6.20;99.90
25024;DHT22;13033;50.936;5.334;2022-12-07T03:04:51;6.30;99.90
25024;DHT22;13033;50.936;5.334;2022-12-07T03:12:24;6.30;99.90
25024;DHT22;13033;50.936;5.334;2022-12-07T03:15:05;6.30;99.90
25024;DHT22;13033;50.936;5.334;2022-12-07T03:17:34;6.30;99.90
25024;DHT22;13033;50.936;5.334;2022-12-07T03:20:04;6.10;99.90
25024;DHT22;13033;50.936;5.334;2022-12-07T03:22:34;6.00;99.90
25024;DHT22;13033;50.936;5.334;2022-12-07T03:25:05;5.90;99.90
25024;DHT22;13033;50.936;5.334;2022-12-07T03:27:33;5.90;99.90
25024;DHT22;13033;50.936;5.334;2022-12-07T03:30:03;5.90;99.90
25024;DHT22;13033;50.936;5.334;2022-12-07T03:32:37;5.90;99.90
25024;DHT22;13033;50.936;5.334;2022-12-07T03:35:09;5.80;99.90
25024;DHT22;13033;50.936;5.334;2022-12-07T03:40:21;6.10;99.90
25024;DHT22;13033;50.936;5.334;2022-12-07T03:42:48;6.20;99.90
25024;DHT22;13033;50.936;5.334;2022-12-07T03:45:15;6.30;99.90
25024;DHT22;13033;50.936;5.334;2022-12-07T03:51:43;6.40;99.90
25024;DHT22;13033;50.936;5.334;2022-12-07T03:53:42;6.20;99.90
25024;DHT22;13033;50.936;5.334;2022-12-07T03:56:11;6.00;99.90
25024;DHT22;13033;50.936;5.334;2022-12-07T03:58:37;6.00;99.90
25024;DHT22;13033;50.936;5.334;2022-12-07T04:01:05;6.10;99.90
25024;DHT22;13033;50.936;5.334;2022-12-07T04:03:30;6.20;99.90
25024;DHT22;13033;50.936;5.334;2022-12-07T04:05:56;6.50;99.90
25024;DHT22;13033;50.936;5.334;2022-12-07T04:08:23;6.40;99.90
25024;DHT22;13033;50.936;5.334;2022-12-07T04:10:49;6.10;99.90
25024;DHT22;13033;50.936;5.334;2022-12-07T04:13:14;5.80;99.90
25024;DHT22;13033;50.936;5.334;2022-12-07T04:15:40;6.00;99.90
25024;DHT22;13033;50.936;5.334;2022-12-07T04:18:06;6.00;99.90
25024;DHT22;13033;50.936;5.334;2022-12-07T04:20:32;5.90;99.90
25024;DHT22;13033;50.936;5.334;2022-12-07T04:22:58;5.90;99.90
25024;DHT22;13033;50.936;5.334;2022-12-07T04:25:23;5.90;99.90
25024;DHT22;13033;50.936;5.334;2022-12-07T04:27:49;5.90;99.90
25024;DHT22;13033;50.936;5.334;2022-12-07T04:30:15;6.00;99.90
25024;DHT22;13033;50.936;5.334;2022-12-07T04:32:40;6.00;99.90
25024;DHT22;13033;50.936;5.334;2022-12-07T04:35:06;6.00;99.90
25024;DHT22;13033;50.936;5.334;2022-12-07T04:37:32;5.80;99.90
25024;DHT22;13033;50.936;5.334;2022-12-07T04:39:58;5.70;99.90
25024;DHT22;13033;50.936;5.334;2022-12-07T04:42:23;5.60;99.90
25024;DHT22;13033;50.936;5.334;2022-12-07T04:44:49;5.50;99.90
25024;DHT22;13033;50.936;5.334;2022-12-07T04:47:16;5.40;99.90
25024;DHT22;13033;50.936;5.334;2022-12-07T04:49:42;5.30;99.90
25024;DHT22;13033;50.936;5.334;2022-12-07T04:52:07;5.20;99.90
25024;DHT22;13033;50.936;5.334;2022-12-07T04:54:33;5.20;99.90
25024;DHT22;13033;50.936;5.334;2022-12-07T04:57:00;5.20;99.90
25024;DHT22;13033;50.936;5.334;2022-12-07T04:59:26;5.40;99.90
25024;DHT22;13033;50.936;5.334;2022-12-07T05:01:51;5.40;99.90
25024;DHT22;13033;50.936;5.334;2022-12-07T05:04:17;5.30;99.90
25024;DHT22;13033;50.936;5.334;2022-12-07T05:06:43;5.30;99.90
25024;DHT22;13033;50.936;5.334;2022-12-07T05:09:09;5.20;99.90
25024;DHT22;13033;50.936;5.334;2022-12-07T05:11:35;5.20;99.90
25024;DHT22;13033;50.936;5.334;2022-12-07T05:14:10;5.20;99.90
25024;DHT22;13033;50.936;5.334;2022-12-07T05:16:36;5.10;99.90
25024;DHT22;13033;50.936;5.334;2022-12-07T05:19:02;5.50;99.90
25024;DHT22;13033;50.936;5.334;2022-12-07T05:21:28;5.50;99.90
25024;DHT22;13033;50.936;5.334;2022-12-07T05:23:54;5.40;99.90
25024;DHT22;13033;50.936;5.334;2022-12-07T05:26:19;5.40;99.90
25024;DHT22;13033;50.936;5.334;2022-12-07T05:28:49;5.50;99.90
25024;DHT22;13033;50.936;5.334;2022-12-07T05:31:15;5.50;99.90
25024;DHT22;13033;50.936;5.334;2022-12-07T05:33:40;5.50;99.90
25024;DHT22;13033;50.936;5.334;2022-12-07T05:36:06;5.50;99.90
25024;DHT22;13033;50.936;5.334;2022-12-07T05:38:32;5.60;99.90
25024;DHT22;13033;50.936;5.334;2022-12-07T05:41:05;5.60;99.90
25024;DHT22;13033;50.936;5.334;2022-12-07T05:43:32;5.40;99.90
25024;DHT22;13033;50.936;5.334;2022-12-07T05:45:58;5.50;99.90
25024;DHT22;13033;50.936;5.334;2022-12-07T05:48:24;5.40;99.90
25024;DHT22;13033;50.936;5.334;2022-12-07T05:50:50;5.40;99.90
25024;DHT22;13033;50.936;5.334;2022-12-07T05:53:17;5.40;99.90
25024;DHT22;13033;50.936;5.334;2022-12-07T05:55:43;5.30;99.90
25024;DHT22;13033;50.936;5.334;2022-12-07T05:58:09;5.40;99.90
25024;DHT22;13033;50.936;5.334;2022-12-07T06:00:56;5.40;99.90
25024;DHT22;13033;50.936;5.334;2022-12-07T06:03:22;5.40;99.90
25024;DHT22;13033;50.936;5.334;2022-12-07T06:05:48;5.50;99.90
25024;DHT22;13033;50.936;5.334;2022-12-07T06:08:14;5.60;99.90
25024;DHT22;13033;50.936;5.334;2022-12-07T06:10:41;5.40;99.90
25024;DHT22;13033;50.936;5.334;2022-12-07T06:13:08;5.50;99.90
25024;DHT22;13033;50.936;5.334;2022-12-07T06:15:35;5.40;99.90
25024;DHT22;13033;50.936;5.334;2022-12-07T06:18:01;5.40;99.90
25024;DHT22;13033;50.936;5.334;2022-12-07T06:20:27;5.40;99.90
25024;DHT22;13033;50.936;5.334;2022-12-07T06:22:53;5.30;99.90
25024;DHT22;13033;50.936;5.334;2022-12-07T06:25:18;5.50;99.90
25024;DHT22;13033;50.936;5.334;2022-12-07T06:27:44;5.50;99.90
25024;DHT22;13033;50.936;5.334;2022-12-07T06:30:10;5.50;99.90
25024;DHT22;13033;50.936;5.334;2022-12-07T06:32:36;5.50;99.90
25024;DHT22;13033;50.936;5.334;2022-12-07T06:35:03;5.60;99.90
25024;DHT22;13033;50.936;5.334;2022-12-07T06:37:28;5.60;99.90
25024;DHT22;13033;50.936;5.334;2022-12-07T06:39:54;5.70;99.90
25024;DHT22;13033;50.936;5.334;2022-12-07T06:42:20;5.60;99.90
25024;DHT22;13033;50.936;5.334;2022-12-07T06:44:45;5.50;99.90
25024;DHT22;13033;50.936;5.334;2022-12-07T06:47:11;5.50;99.90
25024;DHT22;13033;50.936;5.334;2022-12-07T06:49:37;5.50;99.90
25024;DHT22;13033;50.936;5.334;2022-12-07T06:52:02;5.50;99.90
25024;DHT22;13033;50.936;5.334;2022-12-07T06:54:30;5.70;99.90
25024;DHT22;13033;50.936;5.334;2022-12-07T06:56:55;5.60;99.90
25024;DHT22;13033;50.936;5.334;2022-12-07T06:59:21;5.70;99.90
25024;DHT22;13033;50.936;5.334;2022-12-07T07:01:47;5.60;99.90
25024;DHT22;13033;50.936;5.334;2022-12-07T07:04:12;5.50;99.90
25024;DHT22;13033;50.936;5.334;2022-12-07T07:06:38;5.80;99.90
25024;DHT22;13033;50.936;5.334;2022-12-07T07:09:03;5.80;99.90
25024;DHT22;13033;50.936;5.334;2022-12-07T07:11:29;5.70;99.90
25024;DHT22;13033;50.936;5.334;2022-12-07T07:13:55;5.60;99.90
25024;DHT22;13033;50.936;5.334;2022-12-07T07:16:23;5.70;99.90
25024;DHT22;13033;50.936;5.334;2022-12-07T07:18:49;5.60;99.90
25024;DHT22;13033;50.936;5.334;2022-12-07T07:21:15;5.60;99.90
25024;DHT22;13033;50.936;5.334;2022-12-07T07:23:40;5.50;99.90
25024;DHT22;13033;50.936;5.334;2022-12-07T07:26:06;5.20;99.90
25024;DHT22;13033;50.936;5.334;2022-12-07T07:28:32;5.20;99.90
25024;DHT22;13033;50.936;5.334;2022-12-07T07:30:57;5.40;99.90
25024;DHT22;13033;50.936;5.334;2022-12-07T07:33:23;5.20;99.90
25024;DHT22;13033;50.936;5.334;2022-12-07T07:35:49;5.10;99.90
25024;DHT22;13033;50.936;5.334;2022-12-07T07:38:14;4.90;99.90
25024;DHT22;13033;50.936;5.334;2022-12-07T07:40:40;4.90;99.90
25024;DHT22;13033;50.936;5.334;2022-12-07T07:43:06;5.00;99.90
25024;DHT22;13033;50.936;5.334;2022-12-07T07:45:31;4.90;99.90
25024;DHT22;13033;50.936;5.334;2022-12-07T07:47:57;4.70;99.90
25024;DHT22;13033;50.936;5.334;2022-12-07T07:50:23;4.70;99.90
25024;DHT22;13033;50.936;5.334;2022-12-07T07:52:48;4.60;99.90
25024;DHT22;13033;50.936;5.334;2022-12-07T07:55:14;4.50;99.90
25024;DHT22;13033;50.936;5.334;2022-12-07T07:57:40;4.70;99.90
25024;DHT22;13033;50.936;5.334;2022-12-07T08:00:11;4.60;99.90
25024;DHT22;13033;50.936;5.334;2022-12-07T08:02:37;4.90;99.90
25024;DHT22;13033;50.936;5.334;2022-12-07T08:05:03;4.90;99.90
25024;DHT22;13033;50.936;5.334;2022-12-07T08:07:29;4.80;99.90
25024;DHT22;13033;50.936;5.334;2022-12-07T08:09:54;4.70;99.90
25024;DHT22;13033;50.936;5.334;2022-12-07T08:12:20;4.70;99.90
25024;DHT22;13033;50.936;5.334;2022-12-07T08:14:46;4.80;99.90
25024;DHT22;13033;50.936;5.334;2022-12-07T08:17:12;4.90;99.90
25024;DHT22;13033;50.936;5.334;2022-12-07T08:19:38;4.80;99.90
25024;DHT22;13033;50.936;5.334;2022-12-07T08:22:03;5.00;99.90
25024;DHT22;13033;50.936;5.334;2022-12-07T08:24:29;5.20;99.90
25024;DHT22;13033;50.936;5.334;2022-12-07T08:26:54;5.50;99.90
25024;DHT22;13033;50.936;5.334;2022-12-07T08:29:20;5.50;99.90
25024;DHT22;13033;50.936;5.334;2022-12-07T08:31:46;5.40;99.90
25024;DHT22;13033;50.936;5.334;2022-12-07T08:34:12;5.30;99.90
25024;DHT22;13033;50.936;5.334;2022-12-07T08:36:38;5.20;99.90
25024;DHT22;13033;50.936;5.334;2022-12-07T08:39:04;5.20;99.90
25024;DHT22;13033;50.936;5.334;2022-12-07T08:41:31;5.30;99.90
25024;DHT22;13033;50.936;5.334;2022-12-07T08:43:58;5.40;99.90
25024;DHT22;13033;50.936;5.334;2022-12-07T08:46:37;5.40;99.90
25024;DHT22;13033;50.936;5.334;2022-12-07T08:49:21;5.60;99.90
25024;DHT22;13033;50.936;5.334;2022-12-07T08:51:48;5.60;99.90
25024;DHT22;13033;50.936;5.334;2022-12-07T08:54:16;5.80;99.90
25024;DHT22;13033;50.936;5.334;2022-12-07T08:56:44;5.70;99.90
25024;DHT22;13033;50.936;5.334;2022-12-07T08:59:13;5.80;99.90
25024;DHT22;13033;50.936;5.334;2022-12-07T09:01:40;5.90;99.90
25024;DHT22;13033;50.936;5.334;2022-12-07T09:04:06;6.10;99.90
25024;DHT22;13033;50.936;5.334;2022-12-07T09:06:31;6.10;99.90
25024;DHT22;13033;50.936;5.334;2022-12-07T09:08:58;6.00;99.90
25024;DHT22;13033;50.936;5.334;2022-12-07T09:11:25;6.00;99.90
25024;DHT22;13033;50.936;5.334;2022-12-07T09:13:51;5.90;99.90
25024;DHT22;13033;50.936;5.334;2022-12-07T09:16:17;6.20;99.90
25024;DHT22;13033;50.936;5.334;2022-12-07T09:18:43;6.50;99.90
25024;DHT22;13033;50.936;5.334;2022-12-07T09:21:09;6.50;99.90
25024;DHT22;13033;50.936;5.334;2022-12-07T09:23:35;6.50;99.90
25024;DHT22;13033;50.936;5.334;2022-12-07T09:26:01;6.30;99.90
25024;DHT22;13033;50.936;5.334;2022-12-07T09:28:28;6.30;99.90
25024;DHT22;13033;50.936;5.334;2022-12-07T09:30:53;6.40;99.90
25024;DHT22;13033;50.936;5.334;2022-12-07T09:33:19;6.60;99.90
25024;DHT22;13033;50.936;5.334;2022-12-07T09:35:46;6.50;99.90
25024;DHT22;13033;50.936;5.334;2022-12-07T09:38:12;6.60;99.90
25024;DHT22;13033;50.936;5.334;2022-12-07T09:40:38;6.70;99.90
25024;DHT22;13033;50.936;5.334;2022-12-07T09:43:04;6.80;99.90
25024;DHT22;13033;50.936;5.334;2022-12-07T09:45:35;6.70;99.90
25024;DHT22;13033;50.936;5.334;2022-12-07T09:48:03;6.60;99.90
25024;DHT22;13033;50.936;5.334;2022-12-07T09:50:29;6.50;99.90
25024;DHT22;13033;50.936;5.334;2022-12-07T09:53:08;6.50;99.90
25024;DHT22;13033;50.936;5.334;2022-12-07T09:55:36;6.60;99.90
25024;DHT22;13033;50.936;5.334;2022-12-07T09:58:03;6.80;99.90
25024;DHT22;13033;50.936;5.334;2022-12-07T10:00:29;6.90;99.90
25024;DHT22;13033;50.936;5.334;2022-12-07T10:02:57;7.00;99.90
25024;DHT22;13033;50.936;5.334;2022-12-07T10:07:51;6.80;99.90
25024;DHT22;13033;50.936;5.334;2022-12-07T10:10:31;6.80;99.90
25024;DHT22;13033;50.936;5.334;2022-12-07T10:13:06;6.90;99.90
25024;DHT22;13033;50.936;5.334;2022-12-07T10:15:51;7.00;99.90
25024;DHT22;13033;50.936;5.334;2022-12-07T10:23:34;7.10;99.90
25024;DHT22;13033;50.936;5.334;2022-12-07T10:26:20;7.20;99.90
25024;DHT22;13033;50.936;5.334;2022-12-07T10:28:47;7.60;99.90
25024;DHT22;13033;50.936;5.334;2022-12-07T10:31:19;7.60;99.90
25024;DHT22;13033;50.936;5.334;2022-12-07T10:33:51;7.40;99.90
25024;DHT22;13033;50.936;5.334;2022-12-07T10:39:14;7.40;99.90
25024;DHT22;13033;50.936;5.334;2022-12-07T10:41:57;7.40;99.90
25024;DHT22;13033;50.936;5.334;2022-12-07T10:44:34;7.40;99.90
25024;DHT22;13033;50.936;5.334;2022-12-07T10:47:47;7.50;99.90
25024;DHT22;13033;50.936;5.334;2022-12-07T10:52:58;7.50;99.90
25024;DHT22;13033;50.936;5.334;2022-12-07T10:58:31;7.40;99.90
25024;DHT22;13033;50.936;5.334;2022-12-07T11:04:17;7.50;99.90
25024;DHT22;13033;50.936;5.334;2022-12-07T11:30:08;7.60;99.90
25024;DHT22;13033;50.936;5.334;2022-12-07T11:35:27;7.90;99.90
25024;DHT22;13033;50.936;5.334;2022-12-07T11:38:01;7.90;99.90
25024;DHT22;13033;50.936;5.334;2022-12-07T11:40:35;8.00;99.90
25024;DHT22;13033;50.936;5.334;2022-12-07T11:43:05;8.00;99.90
25024;DHT22;13033;50.936;5.334;2022-12-07T11:45:41;8.00;99.90
25024;DHT22;13033;50.936;5.334;2022-12-07T11:48:35;8.00;99.90
25024;DHT22;13033;50.936;5.334;2022-12-07T11:51:07;8.00;99.90
25024;DHT22;13033;50.936;5.334;2022-12-07T11:53:37;8.10;99.90
25024;DHT22;13033;50.936;5.334;2022-12-07T11:56:19;8.10;99.90
25024;DHT22;13033;50.936;5.334;2022-12-07T11:58:54;8.10;99.90
25024;DHT22;13033;50.936;5.334;2022-12-07T12:01:42;8.20;99.90
25024;DHT22;13033;50.936;5.334;2022-12-07T12:04:16;8.20;99.90
25024;DHT22;13033;50.936;5.334;2022-12-07T12:06:45;8.30;99.90
25024;DHT22;13033;50.936;5.334;2022-12-07T12:09:16;8.40;99.90
25024;DHT22;13033;50.936;5.334;2022-12-07T12:20:49;8.50;99.90
25024;DHT22;13033;50.936;5.334;2022-12-07T12:26:00;8.50;99.90
25024;DHT22;13033;50.936;5.334;2022-12-07T12:31:16;8.40;99.90
25024;DHT22;13033;50.936;5.334;2022-12-07T12:33:56;8.40;99.90
25024;DHT22;13033;50.936;5.334;2022-12-07T12:36:26;8.40;99.90
25024;DHT22;13033;50.936;5.334;2022-12-07T12:47:00;8.30;99.90
25024;DHT22;13033;50.936;5.334;2022-12-07T12:49:43;8.30;99.90
25024;DHT22;13033;50.936;5.334;2022-12-07T12:55:12;8.30;99.90
25024;DHT22;13033;50.936;5.334;2022-12-07T12:57:38;8.30;99.90
25024;DHT22;13033;50.936;5.334;2022-12-07T13:00:23;8.20;99.90
25024;DHT22;13033;50.936;5.334;2022-12-07T13:02:58;8.10;99.90
25024;DHT22;13033;50.936;5.334;2022-12-07T13:05:31;8.10;99.90
25024;DHT22;13033;50.936;5.334;2022-12-07T13:08:21;8.10;99.90
25024;DHT22;13033;50.936;5.334;2022-12-07T13:10:49;8.10;99.90
25024;DHT22;13033;50.936;5.334;2022-12-07T13:34:32;7.90;99.90
25024;DHT22;13033;50.936;5.334;2022-12-07T13:37:01;7.90;99.90
25024;DHT22;13033;50.936;5.334;2022-12-07T13:39:27;7.90;99.90
25024;DHT22;13033;50.936;5.334;2022-12-07T13:41:55;8.00;99.90
25024;DHT22;13033;50.936;5.334;2022-12-07T13:44:23;8.20;99.90
25024;DHT22;13033;50.936;5.334;2022-12-07T13:49:28;8.10;99.90
25024;DHT22;13033;50.936;5.334;2022-12-07T13:52:06;8.30;99.90
25024;DHT22;13033;50.936;5.334;2022-12-07T13:54:46;8.30;99.90
25024;DHT22;13033;50.936;5.334;2022-12-07T13:57:12;8.20;99.90
25024;DHT22;13033;50.936;5.334;2022-12-07T13:59:37;8.20;99.90
25024;DHT22;13033;50.936;5.334;2022-12-07T14:02:22;8.20;99.90
25024;DHT22;13033;50.936;5.334;2022-12-07T14:04:50;8.10;99.90
25024;DHT22;13033;50.936;5.334;2022-12-07T14:07:23;8.00;99.90
25024;DHT22;13033;50.936;5.334;2022-12-07T14:10:05;7.80;99.90
25024;DHT22;13033;50.936;5.334;2022-12-07T14:12:32;7.70;99.90
25024;DHT22;13033;50.936;5.334;2022-12-07T14:14:59;7.70;99.90
25024;DHT22;13033;50.936;5.334;2022-12-07T14:17:27;7.70;99.90
25024;DHT22;13033;50.936;5.334;2022-12-07T14:19:55;7.70;99.90
25024;DHT22;13033;50.936;5.334;2022-12-07T14:25:14;7.60;99.90
25024;DHT22;13033;50.936;5.334;2022-12-07T14:27:57;7.70;99.90
25024;DHT22;13033;50.936;5.334;2022-12-07T14:30:34;7.80;99.90
25024;DHT22;13033;50.936;5.334;2022-12-07T14:33:01;7.70;99.90
25024;DHT22;13033;50.936;5.334;2022-12-07T14:35:28;7.70;99.90
25024;DHT22;13033;50.936;5.334;2022-12-07T14:37:54;7.70;99.90
25024;DHT22;13033;50.936;5.334;2022-12-07T14:40:27;7.70;99.90
25024;DHT22;13033;50.936;5.334;2022-12-07T14:43:14;7.60;99.90
25024;DHT22;13033;50.936;5.334;2022-12-07T14:45:41;7.70;99.90
25024;DHT22;13033;50.936;5.334;2022-12-07T14:48:14;7.70;99.90
25024;DHT22;13033;50.936;5.334;2022-12-07T14:50:52;7.70;99.90
25024;DHT22;13033;50.936;5.334;2022-12-07T14:53:23;7.70;99.90
25024;DHT22;13033;50.936;5.334;2022-12-07T14:55:51;7.60;99.90
25024;DHT22;13033;50.936;5.334;2022-12-07T14:58:18;7.60;99.90
25024;DHT22;13033;50.936;5.334;2022-12-07T15:00:44;7.80;99.90
25024;DHT22;13033;50.936;5.334;2022-12-07T15:03:10;7.80;99.90
25024;DHT22;13033;50.936;5.334;2022-12-07T15:05:36;7.80;99.90
25024;DHT22;13033;50.936;5.334;2022-12-07T15:08:03;7.70;99.90
25024;DHT22;13033;50.936;5.334;2022-12-07T15:10:31;7.50;99.90
25024;DHT22;13033;50.936;5.334;2022-12-07T15:13:02;7.60;99.90
25024;DHT22;13033;50.936;5.334;2022-12-07T15:15:48;7.60;99.90
25024;DHT22;13033;50.936;5.334;2022-12-07T15:18:15;7.50;99.90
25024;DHT22;13033;50.936;5.334;2022-12-07T15:20:41;7.50;99.90
25024;DHT22;13033;50.936;5.334;2022-12-07T15:23:06;7.60;99.90
25024;DHT22;13033;50.936;5.334;2022-12-07T15:25:32;7.50;99.90
25024;DHT22;13033;50.936;5.334;2022-12-07T15:27:58;7.60;99.90
25024;DHT22;13033;50.936;5.334;2022-12-07T15:30:24;7.50;99.90
25024;DHT22;13033;50.936;5.334;2022-12-07T15:32:51;7.50;99.90
25024;DHT22;13033;50.936;5.334;2022-12-07T15:35:17;7.50;99.90
25024;DHT22;13033;50.936;5.334;2022-12-07T15:37:42;7.40;99.90
25024;DHT22;13033;50.936;5.334;2022-12-07T15:40:09;7.40;99.90
25024;DHT22;13033;50.936;5.334;2022-12-07T15:42:35;7.40;99.90
25024;DHT22;13033;50.936;5.334;2022-12-07T15:45:01;7.50;99.90
25024;DHT22;13033;50.936;5.334;2022-12-07T15:47:38;7.40;99.90
25024;DHT22;13033;50.936;5.334;2022-12-07T15:50:06;7.30;99.90
25024;DHT22;13033;50.936;5.334;2022-12-07T15:52:33;7.40;99.90
25024;DHT22;13033;50.936;5.334;2022-12-07T15:54:58;7.30;99.90
25024;DHT22;13033;50.936;5.334;2022-12-07T15:57:26;7.30;99.90
25024;DHT22;13033;50.936;5.334;2022-12-07T15:59:52;7.20;99.90
25024;DHT22;13033;50.936;5.334;2022-12-07T16:02:17;7.30;99.90
25024;DHT22;13033;50.936;5.334;2022-12-07T16:04:43;7.30;99.90
25024;DHT22;13033;50.936;5.334;2022-12-07T16:07:09;7.20;99.90
25024;DHT22;13033;50.936;5.334;2022-12-07T16:09:37;7.20;99.90
25024;DHT22;13033;50.936;5.334;2022-12-07T16:12:03;7.10;99.90
25024;DHT22;13033;50.936;5.334;2022-12-07T16:14:28;7.10;99.90
25024;DHT22;13033;50.936;5.334;2022-12-07T16:16:54;7.00;99.90
25024;DHT22;13033;50.936;5.334;2022-12-07T16:19:20;7.00;99.90
25024;DHT22;13033;50.936;5.334;2022-12-07T16:21:45;7.00;99.90
25024;DHT22;13033;50.936;5.334;2022-12-07T16:24:11;7.00;99.90
25024;DHT22;13033;50.936;5.334;2022-12-07T16:26:38;6.90;99.90
25024;DHT22;13033;50.936;5.334;2022-12-07T16:29:04;6.90;99.90
25024;DHT22;13033;50.936;5.334;2022-12-07T16:31:29;7.00;99.90
25024;DHT22;13033;50.936;5.334;2022-12-07T16:33:57;6.90;99.90
25024;DHT22;13033;50.936;5.334;2022-12-07T16:36:24;6.80;99.90
25024;DHT22;13033;50.936;5.334;2022-12-07T16:38:50;6.70;99.90
25024;DHT22;13033;50.936;5.334;2022-12-07T16:41:16;6.70;99.90
25024;DHT22;13033;50.936;5.334;2022-12-07T16:43:42;6.60;99.90
25024;DHT22;13033;50.936;5.334;2022-12-07T16:46:07;6.60;99.90
25024;DHT22;13033;50.936;5.334;2022-12-07T16:48:39;6.70;99.90
25024;DHT22;13033;50.936;5.334;2022-12-07T16:51:07;6.80;99.90
25024;DHT22;13033;50.936;5.334;2022-12-07T16:53:37;6.80;99.90
25024;DHT22;13033;50.936;5.334;2022-12-07T16:56:03;6.80;99.90
25024;DHT22;13033;50.936;5.334;2022-12-07T16:58:28;6.80;99.90
25024;DHT22;13033;50.936;5.334;2022-12-07T17:00:54;6.80;99.90
25024;DHT22;13033;50.936;5.334;2022-12-07T17:03:20;6.70;99.90
25024;DHT22;13033;50.936;5.334;2022-12-07T17:05:46;6.80;99.90
25024;DHT22;13033;50.936;5.334;2022-12-07T17:08:13;6.70;99.90
25024;DHT22;13033;50.936;5.334;2022-12-07T17:10:41;6.60;99.90
25024;DHT22;13033;50.936;5.334;2022-12-07T17:13:07;6.60;99.90
25024;DHT22;13033;50.936;5.334;2022-12-07T17:15:57;6.70;99.90
25024;DHT22;13033;50.936;5.334;2022-12-07T17:18:22;6.60;99.90
25024;DHT22;13033;50.936;5.334;2022-12-07T17:20:48;6.60;99.90
25024;DHT22;13033;50.936;5.334;2022-12-07T17:23:14;6.60;99.90
25024;DHT22;13033;50.936;5.334;2022-12-07T17:25:39;6.60;99.90
25024;DHT22;13033;50.936;5.334;2022-12-07T17:28:05;6.50;99.90
25024;DHT22;13033;50.936;5.334;2022-12-07T17:30:31;6.50;99.90
25024;DHT22;13033;50.936;5.334;2022-12-07T17:32:56;6.60;99.90
25024;DHT22;13033;50.936;5.334;2022-12-07T17:35:22;6.50;99.90
25024;DHT22;13033;50.936;5.334;2022-12-07T17:37:47;6.50;99.90
25024;DHT22;13033;50.936;5.334;2022-12-07T17:40:14;6.60;99.90
25024;DHT22;13033;50.936;5.334;2022-12-07T17:42:40;6.40;99.90
25024;DHT22;13033;50.936;5.334;2022-12-07T17:45:11;6.40;99.90
25024;DHT22;13033;50.936;5.334;2022-12-07T17:47:39;6.40;99.90
25024;DHT22;13033;50.936;5.334;2022-12-07T17:50:06;6.50;99.90
25024;DHT22;13033;50.936;5.334;2022-12-07T17:52:32;6.50;99.90
25024;DHT22;13033;50.936;5.334;2022-12-07T17:55:17;6.50;99.90
25024;DHT22;13033;50.936;5.334;2022-12-07T17:57:42;6.60;99.90
25024;DHT22;13033;50.936;5.334;2022-12-07T18:00:09;6.60;99.90
25024;DHT22;13033;50.936;5.334;2022-12-07T18:02:36;6.60;99.90
25024;DHT22;13033;50.936;5.334;2022-12-07T18:05:02;6.70;99.90
25024;DHT22;13033;50.936;5.334;2022-12-07T18:07:27;6.70;99.90
25024;DHT22;13033;50.936;5.334;2022-12-07T18:09:53;6.60;99.90